Time;durP1;ratioP1;P1;durP2;ratioP2;P2;SDS_P1;SDS_P2;PMS_P1;PMS_P2;Temp;Humidity;BMP_temperature;BMP_pressure;BME280_temperature;BME280_humidity;BME280_pressure;Samples;Min_cycle;Max_cycle;Signal;HPM_P1;HPM_P2
2022/09/06 00:02:18;;;;;;;;;;;;;;;26.36;32.02;101450.69;5048417;28;1119;-36
2022/09/06 00:04:43;;;;;;;;;;;;;;;26.30;32.26;101444.03;5053005;28;1953;-36
2022/09/06 00:07:08;;;;;;;;;;;;;;;26.34;32.50;101444.59;5050873;28;1104;-36
2022/09/06 00:09:33;;;;;;;;;;;;;;;26.35;31.87;101449.81;5054333;28;1080;-36
2022/09/06 00:11:59;;;;;;;;;;;;;;;26.34;32.14;101453.50;5053082;28;1218;-36
2022/09/06 00:14:24;;;;;;;;;;;;;;;26.35;32.15;101449.81;5055459;28;953;-36
2022/09/06 00:16:49;;;;;;;;;;;;;;;26.37;32.35;101442.44;5043395;28;1036;-36
2022/09/06 00:19:15;;;;;;;;;;;;;;;26.36;32.42;101439.91;5055211;28;1124;-36
2022/09/06 00:21:40;;;;;;;;;;;;;;;26.43;32.32;101443.63;5043369;28;981;-36
2022/09/06 00:24:05;;;;;;;;;;;;;;;26.37;32.40;101434.34;5047742;28;1906;-36
2022/09/06 00:26:31;;;;;;;;;;;;;;;26.36;32.23;101437.19;5050381;28;1004;-36
2022/09/06 00:28:56;;;;;;;;;;;;;;;26.31;32.61;101444.88;5056092;28;1056;-36
2022/09/06 00:31:22;;;;;;;;;;;;;;;26.25;32.29;101440.97;5045963;28;989;-36
2022/09/06 00:33:48;;;;;;;;;;;;;;;26.31;32.32;101437.63;5040392;28;1139;-36
2022/09/06 00:36:13;;;;;;;;;;;;;;;26.27;32.71;101442.50;5036662;28;1548;-36
2022/09/06 00:38:39;;;;;;;;;;;;;;;26.26;32.42;101437.25;5049602;28;1091;-36
2022/09/06 00:41:04;;;;;;;;;;;;;;;26.23;32.51;101432.19;5053573;28;1047;-36
2022/09/06 00:43:30;;;;;;;;;;;;;;;26.14;32.33;101442.94;5051304;28;1906;-35
2022/09/06 00:45:55;;;;;;;;;;;;;;;26.22;32.53;101439.44;5046249;28;1028;-36
2022/09/06 00:48:21;;;;;;;;;;;;;;;26.15;32.68;101446.47;5050122;28;1189;-36
2022/09/06 00:50:46;;;;;;;;;;;;;;;26.16;32.85;101443.63;5054657;28;989;-36
2022/09/06 00:53:12;;;;;;;;;;;;;;;26.18;32.85;101443.47;5041116;28;971;-36
2022/09/06 00:55:37;;;;;;;;;;;;;;;26.21;32.82;101451.22;5049301;28;941;-36
2022/09/06 00:58:02;;;;;;;;;;;;;;;26.17;32.68;101447.16;5043476;28;1045;-36
2022/09/06 01:00:28;;;;;;;;;;;;;;;26.21;32.73;101442.31;5046962;28;1072;-36
2022/09/06 01:02:53;;;;;;;;;;;;;;;26.22;32.42;101444.00;5051600;28;1060;-35
2022/09/06 01:05:18;;;;;;;;;;;;;;;26.23;32.89;101451.06;5039893;28;1906;-35
2022/09/06 01:07:56;;;;;;;;;;;;;;;26.19;32.65;101449.72;5046233;28;1127;-36
2022/09/06 01:10:41;;;;;;;;;;;;;;;26.27;32.41;101449.75;5051101;28;1073;-36
2022/09/06 01:13:07;;;;;;;;;;;;;;;26.21;32.68;101453.91;5041207;28;1159;-36
2022/09/06 01:15:32;;;;;;;;;;;;;;;26.19;32.84;101453.25;5038142;28;1128;-36
2022/09/06 01:18:07;;;;;;;;;;;;;;;26.21;32.68;101456.63;5054979;28;1115;-36
2022/09/06 01:20:51;;;;;;;;;;;;;;;26.21;32.90;101459.31;5041925;28;1297;-36
2022/09/06 01:23:23;;;;;;;;;;;;;;;26.19;32.68;101457.78;5043152;28;1977;-36
2022/09/06 01:25:48;;;;;;;;;;;;;;;26.19;32.39;101455.94;5044759;28;1021;-36
2022/09/06 01:28:23;;;;;;;;;;;;;;;26.24;32.88;101456.28;5054122;28;1171;-36
2022/09/06 01:31:11;;;;;;;;;;;;;;;26.25;32.66;101457.16;5055160;28;993;-36
2022/09/06 01:33:36;;;;;;;;;;;;;;;26.15;32.62;101449.16;5029061;28;1454;-37
2022/09/06 01:36:03;;;;;;;;;;;;;;;26.19;32.91;101449.72;5049652;28;1000;-36
2022/09/06 01:38:28;;;;;;;;;;;;;;;26.21;33.16;101453.09;5043388;28;1045;-36
2022/09/06 01:40:54;;;;;;;;;;;;;;;26.20;32.91;101449.53;5050277;28;973;-37
2022/09/06 01:43:23;;;;;;;;;;;;;;;26.17;32.63;101447.16;5047825;28;1959;-37
2022/09/06 01:45:54;;;;;;;;;;;;;;;26.18;32.75;101446.16;5042076;28;1065;-37
2022/09/06 01:48:28;;;;;;;;;;;;;;;26.19;33.05;101434.38;5049449;28;1131;-36
2022/09/06 01:50:57;;;;;;;;;;;;;;;26.21;32.77;101439.59;5043187;28;1045;-37
2022/09/06 01:53:28;;;;;;;;;;;;;;;26.17;32.66;101436.38;5040682;28;1160;-36
2022/09/06 01:56:12;;;;;;;;;;;;;;;26.16;33.03;101431.97;5052888;28;1005;-36
2022/09/06 01:58:49;;;;;;;;;;;;;;;26.13;33.09;101435.00;5049449;28;1135;-36
2022/09/06 02:01:19;;;;;;;;;;;;;;;26.11;32.81;101434.34;5048532;28;945;-36
2022/09/06 02:04:00;;;;;;;;;;;;;;;26.22;32.71;101436.75;5045693;28;1886;-36
2022/09/06 02:06:27;;;;;;;;;;;;;;;26.10;32.90;101429.94;5042807;28;1021;-35
2022/09/06 02:08:54;;;;;;;;;;;;;;;26.01;32.97;101434.41;5044110;28;1222;-36
2022/09/06 02:11:19;;;;;;;;;;;;;;;26.04;33.06;101434.94;5041075;28;1029;-36
2022/09/06 02:13:49;;;;;;;;;;;;;;;26.10;33.37;101435.31;5044903;28;1257;-36
2022/09/06 02:16:15;;;;;;;;;;;;;;;26.03;33.39;101425.19;5036288;28;966;-36
2022/09/06 02:18:41;;;;;;;;;;;;;;;26.03;33.44;101427.88;5050403;28;1163;-36
2022/09/06 02:21:07;;;;;;;;;;;;;;;26.06;33.06;101425.88;5050692;28;948;-36
2022/09/06 02:23:33;;;;;;;;;;;;;;;26.07;33.30;101422.16;5058306;28;1910;-36
2022/09/06 02:26:04;;;;;;;;;;;;;;;26.09;33.26;101417.47;5039812;28;965;-36
2022/09/06 02:28:29;;;;;;;;;;;;;;;26.08;33.32;101419.31;5056975;28;1064;-36
2022/09/06 02:30:58;;;;;;;;;;;;;;;26.15;33.11;101417.66;5057724;28;1029;-36
2022/09/06 02:33:25;;;;;;;;;;;;;;;26.10;33.22;101414.59;5045198;28;1018;-36
2022/09/06 02:35:51;;;;;;;;;;;;;;;26.02;33.41;101422.66;5050813;28;907;-36
2022/09/06 02:38:17;;;;;;;;;;;;;;;26.01;33.16;101413.69;5048241;28;1008;-36
2022/09/06 02:40:42;;;;;;;;;;;;;;;25.92;33.31;101414.66;5050947;28;969;-36
2022/09/06 02:43:08;;;;;;;;;;;;;;;25.96;33.29;101417.91;5050241;28;1049;-36
2022/09/06 02:45:33;;;;;;;;;;;;;;;25.95;33.50;101417.03;5050002;28;1906;-36
2022/09/06 02:47:58;;;;;;;;;;;;;;;25.98;33.34;101416.72;5054677;28;1028;-36
2022/09/06 02:50:24;;;;;;;;;;;;;;;25.99;33.53;101406.78;5053582;28;1055;-36
2022/09/06 02:53:05;;;;;;;;;;;;;;;26.03;33.27;101416.22;5056654;28;1005;-36
2022/09/06 02:55:31;;;;;;;;;;;;;;;25.98;33.77;101419.41;5044494;28;1017;-35
2022/09/06 02:57:57;;;;;;;;;;;;;;;25.97;33.71;101412.34;5045313;28;1027;-35
2022/09/06 03:00:22;;;;;;;;;;;;;;;26.02;33.51;101418.09;5056972;28;1163;-36
2022/09/06 03:02:47;;;;;;;;;;;;;;;25.35;34.67;101408.66;5051751;28;1013;-38
2022/09/06 03:05:13;;;;;;;;;;;;;;;24.46;35.41;101417.25;5049137;28;1898;-40
2022/09/06 03:07:38;;;;;;;;;;;;;;;24.93;34.46;101415.47;5050830;28;1028;-40
2022/09/06 03:10:03;;;;;;;;;;;;;;;24.82;34.41;101420.03;5041929;28;1016;-38
2022/09/06 03:12:29;;;;;;;;;;;;;;;24.74;34.42;101419.94;5053816;28;1163;-39
2022/09/06 03:14:55;;;;;;;;;;;;;;;24.64;34.62;101422.69;5051217;28;1159;-39
2022/09/06 03:17:20;;;;;;;;;;;;;;;24.03;35.78;101412.31;5054754;28;1179;-39
2022/09/06 03:19:45;;;;;;;;;;;;;;;24.11;35.46;101411.56;5048227;28;1025;-39
2022/09/06 03:22:11;;;;;;;;;;;;;;;23.50;36.46;101410.97;5050409;28;860;-39
2022/09/06 03:24:36;;;;;;;;;;;;;;;23.59;36.52;101413.66;5048541;28;1906;-39
2022/09/06 03:27:01;;;;;;;;;;;;;;;23.57;36.42;101412.94;5054575;28;1056;-38
2022/09/06 03:29:27;;;;;;;;;;;;;;;23.54;36.44;101407.03;5056045;28;1147;-38
2022/09/06 03:31:52;;;;;;;;;;;;;;;23.95;35.58;101412.19;5049797;28;942;-40
2022/09/06 03:34:17;;;;;;;;;;;;;;;24.02;35.31;101407.06;5042585;28;903;-39
2022/09/06 03:36:43;;;;;;;;;;;;;;;24.03;35.21;101409.63;5045753;28;1085;-40
2022/09/06 03:39:08;;;;;;;;;;;;;;;23.84;35.46;101405.97;5044473;28;1021;-40
2022/09/06 03:41:33;;;;;;;;;;;;;;;23.71;35.84;101417.03;5049027;28;942;-39
2022/09/06 03:43:59;;;;;;;;;;;;;;;23.48;35.53;101416.50;5052738;28;1969;-39
2022/09/06 03:46:24;;;;;;;;;;;;;;;23.23;36.14;101416.03;5052185;28;902;-39
2022/09/06 03:48:49;;;;;;;;;;;;;;;22.78;37.06;101414.69;5053604;28;1127;-39
2022/09/06 03:51:15;;;;;;;;;;;;;;;22.45;37.86;101412.16;5055315;28;985;-39
2022/09/06 03:53:40;;;;;;;;;;;;;;;22.05;39.19;101408.44;5046385;28;1274;-39
2022/09/06 03:56:05;;;;;;;;;;;;;;;21.76;39.98;101415.28;5052076;28;1115;-38
2022/09/06 03:58:31;;;;;;;;;;;;;;;22.73;38.19;101421.31;5046747;28;1642;-39
2022/09/06 04:01:00;;;;;;;;;;;;;;;22.90;37.55;101427.00;5050916;28;1268;-38
2022/09/06 04:03:25;;;;;;;;;;;;;;;23.13;36.99;101424.06;5049474;28;1894;-38
2022/09/06 04:05:51;;;;;;;;;;;;;;;23.32;36.62;101425.09;5054389;28;1107;-38
2022/09/06 04:08:16;;;;;;;;;;;;;;;23.72;35.83;101425.94;5045617;28;1201;-39
2022/09/06 04:10:41;;;;;;;;;;;;;;;24.30;34.49;101426.81;5040740;28;888;-37
2022/09/06 04:13:07;;;;;;;;;;;;;;;24.92;33.52;101427.25;5036879;28;1108;-37
2022/09/06 04:15:32;;;;;;;;;;;;;;;24.96;33.59;101431.31;5043605;28;1056;-37
2022/09/06 04:17:57;;;;;;;;;;;;;;;24.91;33.85;101436.31;5056124;28;1230;-36
2022/09/06 04:20:23;;;;;;;;;;;;;;;25.02;34.24;101432.56;5056529;28;1297;-37
2022/09/06 04:22:48;;;;;;;;;;;;;;;25.07;33.79;101428.41;5043046;28;2511;-36
2022/09/06 04:25:13;;;;;;;;;;;;;;;25.12;33.54;101438.75;5044263;28;1918;-37
2022/09/06 04:27:39;;;;;;;;;;;;;;;25.27;33.50;101433.66;5052813;28;1928;-35
2022/09/06 04:30:06;;;;;;;;;;;;;;;25.39;33.37;101428.88;5050666;28;1809;-35
2022/09/06 04:32:31;;;;;;;;;;;;;;;25.42;33.33;101427.75;5045836;28;1902;-35
2022/09/06 04:34:57;;;;;;;;;;;;;;;25.52;33.35;101427.66;5048199;28;1792;-36
2022/09/06 04:37:22;;;;;;;;;;;;;;;25.60;33.24;101424.16;5052350;28;2108;-36
2022/09/06 04:39:47;;;;;;;;;;;;;;;25.55;33.36;101428.19;5047627;28;1443;-35
2022/09/06 04:42:13;;;;;;;;;;;;;;;25.58;33.17;101427.00;5047185;28;1067;-36
2022/09/06 04:44:38;;;;;;;;;;;;;;;25.58;33.67;101421.63;5048802;28;1906;-35
2022/09/06 04:47:13;;;;;;;;;;;;;;;25.64;33.65;101429.09;5049698;28;1005;-35
2022/09/06 04:49:39;;;;;;;;;;;;;;;25.64;33.40;101429.09;5042739;28;1068;-36
2022/09/06 04:52:04;;;;;;;;;;;;;;;25.65;33.79;101436.22;5048391;28;1239;-36
2022/09/06 04:54:30;;;;;;;;;;;;;;;25.73;33.33;101429.16;5047848;28;1259;-36
2022/09/06 04:56:55;;;;;;;;;;;;;;;25.83;33.40;101435.31;5048357;28;1191;-36
2022/09/06 04:59:20;;;;;;;;;;;;;;;25.76;33.55;101435.09;5047654;28;1261;-36
2022/09/06 05:01:46;;;;;;;;;;;;;;;25.83;33.59;101431.78;5047541;28;1203;-36
2022/09/06 05:04:11;;;;;;;;;;;;;;;25.79;33.59;101433.97;5046681;28;1973;-36
2022/09/06 05:06:38;;;;;;;;;;;;;;;25.93;33.66;101432.53;5048329;28;2286;-35
2022/09/06 05:09:03;;;;;;;;;;;;;;;25.87;33.69;101434.00;5047694;28;1219;-36
2022/09/06 05:11:28;;;;;;;;;;;;;;;25.91;34.01;101434.53;5045764;28;1219;-35
2022/09/06 05:13:54;;;;;;;;;;;;;;;25.89;34.04;101437.38;5045239;28;1262;-35
2022/09/06 05:16:19;;;;;;;;;;;;;;;25.85;34.44;101436.00;5048082;28;1262;-35
2022/09/06 05:18:44;;;;;;;;;;;;;;;25.90;34.15;101444.47;5047078;28;1277;-35
2022/09/06 05:21:10;;;;;;;;;;;;;;;25.95;34.45;101444.00;5047115;28;1195;-35
2022/09/06 05:23:35;;;;;;;;;;;;;;;25.94;34.93;101438.78;5049375;28;1977;-35
2022/09/06 05:26:00;;;;;;;;;;;;;;;25.95;34.56;101451.22;5049455;28;1218;-35
2022/09/06 05:28:26;;;;;;;;;;;;;;;26.03;34.24;101449.44;5048451;28;1199;-35
2022/09/06 05:30:51;;;;;;;;;;;;;;;26.06;34.63;101450.13;5044964;28;1231;-35
2022/09/06 05:33:20;;;;;;;;;;;;;;;26.05;34.41;101451.97;5047530;28;1068;-35
2022/09/06 05:35:46;;;;;;;;;;;;;;;26.11;34.43;101453.22;5047908;28;1239;-36
2022/09/06 05:38:11;;;;;;;;;;;;;;;26.11;35.00;101447.81;5048257;28;2452;-35
2022/09/06 05:40:36;;;;;;;;;;;;;;;26.12;34.80;101442.25;5036197;28;942;-35
2022/09/06 05:43:02;;;;;;;;;;;;;;;26.23;34.84;101449.22;5054614;28;1020;-35
2022/09/06 05:45:27;;;;;;;;;;;;;;;26.23;34.50;101434.88;5045945;28;1898;-35
2022/09/06 05:47:52;;;;;;;;;;;;;;;26.29;35.08;101447.75;5041745;28;1071;-35
2022/09/06 05:50:18;;;;;;;;;;;;;;;26.40;34.99;101446.63;5050117;28;1040;-35
2022/09/06 05:52:43;;;;;;;;;;;;;;;26.26;35.21;101446.19;5051894;28;1017;-35
2022/09/06 05:55:09;;;;;;;;;;;;;;;26.36;35.60;101447.97;5056560;28;1013;-35
2022/09/06 05:57:34;;;;;;;;;;;;;;;26.34;34.92;101444.59;5054426;28;1543;-35
2022/09/06 05:59:59;;;;;;;;;;;;;;;26.31;35.34;101442.19;5042927;28;1033;-35
2022/09/06 06:02:24;;;;;;;;;;;;;;;26.32;35.73;101441.16;5053089;28;1152;-36
2022/09/06 06:04:50;;;;;;;;;;;;;;;26.33;35.54;101449.13;5049188;28;1902;-36
2022/09/06 06:07:16;;;;;;;;;;;;;;;26.44;35.34;101447.16;5045530;28;2334;-35
2022/09/06 06:09:41;;;;;;;;;;;;;;;26.41;35.21;101446.47;5050779;28;965;-36
2022/09/06 06:12:07;;;;;;;;;;;;;;;26.42;35.63;101447.34;5047256;28;1031;-35
2022/09/06 06:14:32;;;;;;;;;;;;;;;26.46;35.71;101442.47;5046065;28;985;-36
2022/09/06 06:16:58;;;;;;;;;;;;;;;26.52;35.36;101445.38;5054265;28;1613;-36
2022/09/06 06:19:25;;;;;;;;;;;;;;;26.45;35.82;101449.69;5054662;28;1216;-35
2022/09/06 06:21:50;;;;;;;;;;;;;;;26.49;35.72;101455.63;5054240;28;1123;-36
2022/09/06 06:24:16;;;;;;;;;;;;;;;26.61;35.91;101450.78;5050811;28;1918;-36
2022/09/06 06:26:41;;;;;;;;;;;;;;;26.62;35.91;101449.78;5056571;28;1095;-36
2022/09/06 06:29:08;;;;;;;;;;;;;;;26.68;35.90;101448.25;5045287;28;982;-35
2022/09/06 06:31:33;;;;;;;;;;;;;;;26.74;35.69;101436.84;5054089;28;1016;-36
2022/09/06 06:34:01;;;;;;;;;;;;;;;26.75;36.45;101446.59;5053967;28;1266;-36
2022/09/06 06:36:29;;;;;;;;;;;;;;;26.87;35.94;101447.16;5051031;28;1217;-36
2022/09/06 06:38:54;;;;;;;;;;;;;;;26.87;35.94;101439.06;5054429;28;2599;-36
2022/09/06 06:41:22;;;;;;;;;;;;;;;26.96;36.42;101446.16;5050589;28;1170;-36
2022/09/06 06:43:51;;;;;;;;;;;;;;;27.01;37.22;101443.84;5045221;28;1901;-36
2022/09/06 06:46:17;;;;;;;;;;;;;;;26.86;36.79;101448.19;5047448;28;1091;-36
2022/09/06 06:48:43;;;;;;;;;;;;;;;26.92;36.98;101444.81;5054008;28;1308;-35
2022/09/06 06:51:15;;;;;;;;;;;;;;;26.82;37.16;101450.34;5054052;28;1442;-36
2022/09/06 06:53:42;;;;;;;;;;;;;;;26.82;37.58;101446.81;5049244;28;1363;-35
2022/09/06 06:56:22;;;;;;;;;;;;;;;26.86;37.47;101448.19;5052045;28;1317;-36
2022/09/06 06:58:49;;;;;;;;;;;;;;;26.89;37.54;101445.97;5051399;28;1293;-35
2022/09/06 07:01:14;;;;;;;;;;;;;;;26.86;37.17;101445.47;5052933;28;1277;-36
2022/09/06 07:03:40;;;;;;;;;;;;;;;26.84;37.94;101440.22;5049117;28;1906;-36
2022/09/06 07:06:05;;;;;;;;;;;;;;;26.87;37.69;101439.91;5051266;28;1166;-36
2022/09/06 07:08:31;;;;;;;;;;;;;;;26.93;37.82;101445.63;5038304;28;2516;-36
2022/09/06 07:10:56;;;;;;;;;;;;;;;26.83;38.41;101443.09;5050694;28;941;-35
2022/09/06 07:13:22;;;;;;;;;;;;;;;26.75;38.46;101449.31;5048685;28;1159;-36
2022/09/06 07:15:47;;;;;;;;;;;;;;;26.77;38.80;101448.16;5053698;28;1174;-36
2022/09/06 07:18:15;;;;;;;;;;;;;;;26.74;39.05;101442.22;5052907;28;1242;-38
2022/09/06 07:20:40;;;;;;;;;;;;;;;26.82;38.84;101453.06;5053464;28;1198;-35
2022/09/06 07:23:07;;;;;;;;;;;;;;;26.89;38.76;101451.38;5053947;28;1190;-36
2022/09/06 07:25:32;;;;;;;;;;;;;;;26.83;39.02;101448.47;5050920;28;1894;-36
2022/09/06 07:27:58;;;;;;;;;;;;;;;26.85;38.90;101446.47;5055455;28;1158;-36
2022/09/06 07:30:23;;;;;;;;;;;;;;;26.78;39.54;101455.22;5054552;28;1155;-36
2022/09/06 07:32:49;;;;;;;;;;;;;;;26.85;39.56;101449.16;5052114;28;1349;-35
2022/09/06 07:35:14;;;;;;;;;;;;;;;26.94;39.28;101450.91;5054209;28;1320;-36
2022/09/06 07:37:39;;;;;;;;;;;;;;;26.90;39.45;101458.47;5048315;28;2253;-36
2022/09/06 07:40:05;;;;;;;;;;;;;;;26.87;39.58;101461.50;5051670;28;1347;-36
2022/09/06 07:42:30;;;;;;;;;;;;;;;26.95;39.19;101466.06;5053625;28;1376;-36
2022/09/06 07:44:56;;;;;;;;;;;;;;;26.97;39.04;101460.50;5051671;28;1890;-36
2022/09/06 07:47:22;;;;;;;;;;;;;;;27.06;39.08;101464.13;5051805;28;1368;-36
2022/09/06 07:49:47;;;;;;;;;;;;;;;27.04;39.42;101463.44;5055262;28;1293;-36
2022/09/06 07:52:13;;;;;;;;;;;;;;;27.05;39.12;101459.72;5056120;28;1320;-36
2022/09/06 07:54:38;;;;;;;;;;;;;;;27.08;38.99;101453.97;5056083;28;1257;-35
2022/09/06 07:57:03;;;;;;;;;;;;;;;27.08;39.17;101462.94;5054717;28;1340;-36
2022/09/06 07:59:29;;;;;;;;;;;;;;;27.10;39.07;101462.75;5054529;28;1380;-35
2022/09/06 08:01:54;;;;;;;;;;;;;;;27.19;38.98;101460.94;5053767;28;1336;-36
2022/09/06 08:04:19;;;;;;;;;;;;;;;27.21;38.55;101462.44;5052710;28;1897;-35
2022/09/06 08:06:46;;;;;;;;;;;;;;;27.23;38.18;101467.69;5042117;28;2275;-36
2022/09/06 08:09:12;;;;;;;;;;;;;;;27.17;38.05;101460.25;5046384;28;1206;-35
2022/09/06 08:11:37;;;;;;;;;;;;;;;27.30;38.21;101465.16;5051599;28;972;-36
2022/09/06 08:14:04;;;;;;;;;;;;;;;27.22;38.45;101464.16;5048696;28;1332;-37
2022/09/06 08:16:29;;;;;;;;;;;;;;;27.30;39.04;101471.41;5052473;28;1367;-34
2022/09/06 08:18:55;;;;;;;;;;;;;;;27.16;38.80;101459.38;5046537;28;1162;-37
2022/09/06 08:21:24;;;;;;;;;;;;;;;27.02;39.35;101461.75;5048092;28;1072;-35
2022/09/06 08:23:50;;;;;;;;;;;;;;;27.32;38.95;101455.03;5053855;28;1963;-36
2022/09/06 08:26:16;;;;;;;;;;;;;;;27.63;38.22;101454.38;5054851;28;1096;-35
2022/09/06 08:28:41;;;;;;;;;;;;;;;27.60;37.81;101442.03;5052019;28;981;-36
2022/09/06 08:31:10;;;;;;;;;;;;;;;27.63;37.98;101446.25;5041231;28;953;-36
2022/09/06 08:33:36;;;;;;;;;;;;;;;27.60;37.52;101443.88;5052848;28;1063;-35
2022/09/06 08:36:01;;;;;;;;;;;;;;;27.70;37.34;101435.63;5043487;28;1483;-34
2022/09/06 08:38:27;;;;;;;;;;;;;;;27.70;37.79;101444.59;5038956;28;2324;-34
2022/09/06 08:40:53;;;;;;;;;;;;;;;27.62;37.73;101441.88;5047682;28;978;-35
2022/09/06 08:43:21;;;;;;;;;;;;;;;27.65;38.19;101437.97;5052751;28;1012;-35
2022/09/06 08:45:47;;;;;;;;;;;;;;;27.81;37.36;101429.06;5044290;28;1897;-34
2022/09/06 08:48:12;;;;;;;;;;;;;;;27.90;37.63;101435.28;5041483;28;973;-35
2022/09/06 08:50:38;;;;;;;;;;;;;;;27.87;37.67;101425.66;5049420;28;1051;-33
2022/09/06 08:53:09;;;;;;;;;;;;;;;27.85;37.63;101424.97;5050181;28;974;-34
2022/09/06 08:55:38;;;;;;;;;;;;;;;27.88;37.57;101427.34;5049964;28;993;-34
2022/09/06 08:58:06;;;;;;;;;;;;;;;27.90;37.80;101421.75;5052164;28;981;-33
2022/09/06 09:00:32;;;;;;;;;;;;;;;27.99;37.15;101426.97;5044650;28;1190;-35
2022/09/06 09:03:06;;;;;;;;;;;;;;;28.05;36.95;101422.75;5045847;28;961;-34
2022/09/06 09:05:35;;;;;;;;;;;;;;;28.06;36.55;101415.47;5042959;28;1902;-36
2022/09/06 09:08:04;;;;;;;;;;;;;;;28.14;36.53;101403.78;5047411;28;2714;-34
2022/09/06 09:10:30;;;;;;;;;;;;;;;28.15;36.58;101406.31;5049325;28;1016;-34
2022/09/06 09:12:56;;;;;;;;;;;;;;;28.06;36.47;101412.78;5047143;28;898;-34
2022/09/06 09:15:21;;;;;;;;;;;;;;;28.16;36.23;101405.28;5048866;28;989;-35
2022/09/06 09:17:48;;;;;;;;;;;;;;;28.18;36.44;101407.81;5051483;28;1000;-36
2022/09/06 09:20:13;;;;;;;;;;;;;;;28.24;35.92;101404.44;5041918;28;1273;-35
2022/09/06 09:22:38;;;;;;;;;;;;;;;28.34;36.24;101398.84;5049090;28;997;-34
2022/09/06 09:25:04;;;;;;;;;;;;;;;28.24;35.82;101402.56;5041628;28;2003;-34
2022/09/06 09:27:30;;;;;;;;;;;;;;;28.36;36.15;101400.34;5059106;28;1076;-34
2022/09/06 09:29:56;;;;;;;;;;;;;;;28.36;35.67;101400.34;5045181;28;1155;-35
2022/09/06 09:32:41;;;;;;;;;;;;;;;28.29;35.73;101404.75;5060407;28;862;-35
2022/09/06 09:35:19;;;;;;;;;;;;;;;28.07;36.14;101398.22;5044016;28;934;-35
2022/09/06 09:37:45;;;;;;;;;;;;;;;28.01;36.27;101398.94;5051911;28;1928;-34
2022/09/06 09:40:26;;;;;;;;;;;;;;;28.10;35.89;101398.72;5052578;28;1289;-34
2022/09/06 09:42:52;;;;;;;;;;;;;;;28.05;36.29;101394.84;5056561;28;1194;-34
2022/09/06 09:45:20;;;;;;;;;;;;;;;28.22;35.79;101396.50;5053926;28;1910;-35
2022/09/06 09:47:45;;;;;;;;;;;;;;;28.11;35.77;101389.59;5057425;28;1414;-35
2022/09/06 09:50:23;;;;;;;;;;;;;;;28.21;35.85;101405.59;5058527;28;1356;-35
2022/09/06 09:52:48;;;;;;;;;;;;;;;28.19;36.03;101398.69;5056711;28;1269;-34
2022/09/06 09:55:13;;;;;;;;;;;;;;;27.99;35.99;101397.22;5053642;28;1403;-35
2022/09/06 09:57:43;;;;;;;;;;;;;;;27.95;36.13;101387.78;5056055;28;1171;-35
2022/09/06 10:00:12;;;;;;;;;;;;;;;28.09;35.82;101391.63;5058107;28;1384;-36
2022/09/06 10:02:40;;;;;;;;;;;;;;;28.06;35.91;101393.84;5057667;28;1305;-34
2022/09/06 10:05:08;;;;;;;;;;;;;;;28.03;36.27;101391.50;5055355;28;2278;-33
2022/09/06 10:07:33;;;;;;;;;;;;;;;27.91;36.42;101388.31;5057011;28;1750;-35
2022/09/06 10:09:59;;;;;;;;;;;;;;;28.02;36.37;101385.22;5053226;28;1470;-36
2022/09/06 10:12:28;;;;;;;;;;;;;;;27.91;36.48;101385.59;5056235;28;1416;-34
2022/09/06 10:14:53;;;;;;;;;;;;;;;27.96;36.62;101381.34;5056735;28;1340;-36
2022/09/06 10:17:19;;;;;;;;;;;;;;;28.13;36.05;101377.75;5048220;28;1265;-33
2022/09/06 10:19:45;;;;;;;;;;;;;;;28.05;36.21;101374.06;5052922;28;1064;-34
2022/09/06 10:22:30;;;;;;;;;;;;;;;27.99;36.09;101367.47;5052533;28;1245;-35
2022/09/06 10:25:05;;;;;;;;;;;;;;;28.02;36.03;101374.41;5054593;28;1980;-33
2022/09/06 10:27:32;;;;;;;;;;;;;;;28.14;36.09;101365.91;5050375;28;1124;-36
2022/09/06 10:29:57;;;;;;;;;;;;;;;28.10;36.12;101368.13;5056848;28;1313;-36
2022/09/06 10:32:28;;;;;;;;;;;;;;;28.12;36.40;101366.09;5060289;28;1170;-35
2022/09/06 10:34:56;;;;;;;;;;;;;;;28.06;36.25;101356.81;5060835;28;1392;-35
2022/09/06 10:37:27;;;;;;;;;;;;;;;28.16;36.33;101356.59;5053211;28;2234;-36
2022/09/06 10:40:07;;;;;;;;;;;;;;;28.17;35.89;101362.84;5055218;28;1147;-35
2022/09/06 10:42:32;;;;;;;;;;;;;;;28.19;36.37;101358.13;5054519;28;1300;-35
2022/09/06 10:44:57;;;;;;;;;;;;;;;28.25;35.96;101349.31;5050551;28;1898;-36
2022/09/06 10:47:25;;;;;;;;;;;;;;;28.15;36.62;101348.66;5051565;28;1412;-36
2022/09/06 10:49:53;;;;;;;;;;;;;;;28.09;36.31;101339.41;5052305;28;1068;-36
2022/09/06 10:52:20;;;;;;;;;;;;;;;28.18;36.27;101334.78;5054840;28;1079;-35
2022/09/06 10:54:46;;;;;;;;;;;;;;;28.27;35.73;101333.75;5056443;28;1290;-35
2022/09/06 10:57:11;;;;;;;;;;;;;;;28.31;35.80;101339.66;5052711;28;1138;-34
2022/09/06 10:59:47;;;;;;;;;;;;;;;28.23;36.12;101345.91;5057018;28;1218;-36
2022/09/06 11:02:31;;;;;;;;;;;;;;;28.22;35.90;101350.50;5054280;28;1191;-37
2022/09/06 11:05:02;;;;;;;;;;;;;;;28.23;36.13;101344.06;5050643;28;1952;-34
2022/09/06 11:07:33;;;;;;;;;;;;;;;28.20;36.13;101348.97;5050470;28;2191;-36
2022/09/06 11:10:01;;;;;;;;;;;;;;;28.24;35.98;101340.34;5054789;28;1305;-37
2022/09/06 11:12:29;;;;;;;;;;;;;;;28.30;35.67;101338.78;5050803;28;1281;-36
2022/09/06 11:14:55;;;;;;;;;;;;;;;28.30;35.49;101343.34;5055963;28;1316;-37
2022/09/06 11:17:39;;;;;;;;;;;;;;;28.35;35.42;101338.28;5053155;28;1249;-35
2022/09/06 11:20:07;;;;;;;;;;;;;;;28.31;35.91;101337.75;5053604;28;1168;-35
2022/09/06 11:22:52;;;;;;;;;;;;;;;28.40;35.80;101335.91;5054082;28;1277;-36
2022/09/06 11:25:36;;;;;;;;;;;;;;;28.48;35.48;101338.56;5051842;28;1914;-35
2022/09/06 11:28:01;;;;;;;;;;;;;;;28.46;35.68;101331.66;5051864;28;1092;-35
2022/09/06 11:30:27;;;;;;;;;;;;;;;28.44;35.68;101321.00;5036869;28;961;-36
2022/09/06 11:33:05;;;;;;;;;;;;;;;28.51;35.77;101334.63;5044024;28;1029;-37
2022/09/06 11:35:34;;;;;;;;;;;;;;;28.57;35.89;101330.38;5048613;28;954;-36
2022/09/06 11:38:05;;;;;;;;;;;;;;;28.56;35.74;101326.00;5041177;28;2377;-37
2022/09/06 11:40:37;;;;;;;;;;;;;;;28.60;35.08;101324.63;5052138;28;953;-37
2022/09/06 11:43:02;;;;;;;;;;;;;;;28.57;35.40;101314.16;5050457;28;993;-35
2022/09/06 11:45:41;;;;;;;;;;;;;;;28.61;35.27;101331.72;5053793;28;1972;-37
2022/09/06 11:48:22;;;;;;;;;;;;;;;28.60;34.81;101316.50;5053652;28;1154;-35
2022/09/06 11:50:53;;;;;;;;;;;;;;;28.61;34.80;101320.91;5044685;28;1060;-36
2022/09/06 11:53:18;;;;;;;;;;;;;;;28.51;35.02;101328.41;5054274;28;1092;-35
2022/09/06 11:55:48;;;;;;;;;;;;;;;28.46;35.62;101324.34;5046612;28;972;-35
2022/09/06 11:58:16;;;;;;;;;;;;;;;28.37;35.95;101317.31;5050651;28;949;-35
2022/09/06 12:00:42;;;;;;;;;;;;;;;28.44;35.58;101321.00;5049196;28;1099;-35
2022/09/06 12:03:08;;;;;;;;;;;;;;;28.46;35.63;101316.22;5045884;28;969;-35
2022/09/06 12:05:33;;;;;;;;;;;;;;;28.46;35.40;101307.28;5049928;28;1963;-36
2022/09/06 12:08:12;;;;;;;;;;;;;;;28.51;35.21;101302.16;5043389;28;2382;-36
2022/09/06 12:10:40;;;;;;;;;;;;;;;28.49;35.01;101306.94;5050795;28;1121;-35
2022/09/06 12:13:24;;;;;;;;;;;;;;;28.50;35.61;101310.47;5052455;28;1099;-34
2022/09/06 12:15:53;;;;;;;;;;;;;;;28.52;35.95;101311.13;5056040;28;1119;-35
2022/09/06 12:18:37;;;;;;;;;;;;;;;28.58;35.17;101302.28;5049241;28;1017;-34
2022/09/06 12:21:02;;;;;;;;;;;;;;;28.63;35.08;101313.44;5038008;28;962;-35
2022/09/06 12:23:33;;;;;;;;;;;;;;;28.62;35.52;101306.34;5051181;28;1048;-33
2022/09/06 12:25:59;;;;;;;;;;;;;;;28.58;35.64;101303.13;5044367;28;1918;-36
2022/09/06 12:28:26;;;;;;;;;;;;;;;28.57;35.91;101303.31;5050218;28;1076;-37
2022/09/06 12:30:52;;;;;;;;;;;;;;;28.56;35.69;101307.06;5049337;28;1111;-35
2022/09/06 12:33:26;;;;;;;;;;;;;;;28.56;35.89;101302.47;5044471;28;1274;-36
2022/09/06 12:35:51;;;;;;;;;;;;;;;28.62;35.39;101303.63;5047112;28;1321;-36
2022/09/06 12:38:21;;;;;;;;;;;;;;;28.73;35.77;101302.34;5052586;28;2359;-35
2022/09/06 12:40:47;;;;;;;;;;;;;;;28.69;35.37;101304.59;5050853;28;1460;-36
2022/09/06 12:43:13;;;;;;;;;;;;;;;28.65;35.60;101302.41;5048552;28;1416;-34
2022/09/06 12:45:42;;;;;;;;;;;;;;;28.46;35.76;101297.28;5045291;28;1983;-35
2022/09/06 12:48:11;;;;;;;;;;;;;;;28.64;36.08;101304.31;5045942;28;1108;-36
2022/09/06 12:50:37;;;;;;;;;;;;;;;28.74;36.11;101306.75;5046402;28;974;-36